sensor_id;sensor_type;location;lat;lon;timestamp;P1;durP1;ratioP1;P2;durP2;ratioP2
2011;SDS011;1009;51.436;6.972;2023-07-20T00:02:23;4.60;;;2.60;;
2011;SDS011;1009;51.436;6.972;2023-07-20T00:04:49;5.30;;;3.10;;
2011;SDS011;1009;51.436;6.972;2023-07-20T00:07:16;3.30;;;2.20;;
2011;SDS011;1009;51.436;6.972;2023-07-20T00:09:43;2.27;;;1.90;;
2011;SDS011;1009;51.436;6.972;2023-07-20T00:12:10;3.80;;;3.07;;
2011;SDS011;1009;51.436;6.972;2023-07-20T00:14:36;3.03;;;2.30;;
2011;SDS011;1009;51.436;6.972;2023-07-20T00:17:03;2.77;;;2.50;;
2011;SDS011;1009;51.436;6.972;2023-07-20T00:19:32;4.00;;;3.03;;
2011;SDS011;1009;51.436;6.972;2023-07-20T00:22:00;5.77;;;3.20;;
2011;SDS011;1009;51.436;6.972;2023-07-20T00:24:26;4.23;;;3.43;;
2011;SDS011;1009;51.436;6.972;2023-07-20T00:26:53;3.83;;;2.87;;
2011;SDS011;1009;51.436;6.972;2023-07-20T00:29:20;4.93;;;3.27;;
2011;SDS011;1009;51.436;6.972;2023-07-20T00:31:47;4.90;;;3.00;;
2011;SDS011;1009;51.436;6.972;2023-07-20T00:34:14;3.70;;;2.27;;
2011;SDS011;1009;51.436;6.972;2023-07-20T00:36:42;4.50;;;3.43;;
2011;SDS011;1009;51.436;6.972;2023-07-20T00:39:08;4.70;;;3.03;;
2011;SDS011;1009;51.436;6.972;2023-07-20T00:41:35;3.40;;;3.10;;
2011;SDS011;1009;51.436;6.972;2023-07-20T00:44:02;3.63;;;3.33;;
2011;SDS011;1009;51.436;6.972;2023-07-20T00:46:29;5.07;;;3.27;;
2011;SDS011;1009;51.436;6.972;2023-07-20T00:48:57;4.77;;;2.87;;
2011;SDS011;1009;51.436;6.972;2023-07-20T00:51:24;6.03;;;3.33;;
2011;SDS011;1009;51.436;6.972;2023-07-20T00:53:54;4.60;;;3.10;;
2011;SDS011;1009;51.436;6.972;2023-07-20T00:56:21;6.70;;;3.97;;
2011;SDS011;1009;51.436;6.972;2023-07-20T00:58:48;5.00;;;3.10;;
2011;SDS011;1009;51.436;6.972;2023-07-20T01:01:15;4.23;;;3.13;;
2011;SDS011;1009;51.436;6.972;2023-07-20T01:03:41;4.50;;;3.80;;
2011;SDS011;1009;51.436;6.972;2023-07-20T01:06:10;3.90;;;3.20;;
2011;SDS011;1009;51.436;6.972;2023-07-20T01:08:43;5.73;;;3.60;;
2011;SDS011;1009;51.436;6.972;2023-07-20T01:11:30;6.67;;;3.53;;
2011;SDS011;1009;51.436;6.972;2023-07-20T01:14:02;3.97;;;3.07;;
2011;SDS011;1009;51.436;6.972;2023-07-20T01:16:29;4.87;;;3.17;;
2011;SDS011;1009;51.436;6.972;2023-07-20T01:18:56;7.93;;;3.77;;
2011;SDS011;1009;51.436;6.972;2023-07-20T01:21:24;4.43;;;3.53;;
2011;SDS011;1009;51.436;6.972;2023-07-20T01:27:21;4.67;;;3.87;;
2011;SDS011;1009;51.436;6.972;2023-07-20T01:30:03;5.73;;;3.90;;
2011;SDS011;1009;51.436;6.972;2023-07-20T01:32:43;6.27;;;4.30;;
2011;SDS011;1009;51.436;6.972;2023-07-20T01:35:13;4.90;;;3.50;;
2011;SDS011;1009;51.436;6.972;2023-07-20T01:37:42;5.97;;;4.00;;
2011;SDS011;1009;51.436;6.972;2023-07-20T01:40:10;4.40;;;3.63;;
2011;SDS011;1009;51.436;6.972;2023-07-20T01:42:42;5.60;;;4.00;;
2011;SDS011;1009;51.436;6.972;2023-07-20T01:45:10;7.13;;;4.03;;
2011;SDS011;1009;51.436;6.972;2023-07-20T01:47:37;4.17;;;3.00;;
2011;SDS011;1009;51.436;6.972;2023-07-20T01:50:06;4.53;;;3.10;;
2011;SDS011;1009;51.436;6.972;2023-07-20T01:52:33;7.90;;;4.00;;
2011;SDS011;1009;51.436;6.972;2023-07-20T01:55:00;6.13;;;4.00;;
2011;SDS011;1009;51.436;6.972;2023-07-20T01:57:27;5.53;;;3.53;;
2011;SDS011;1009;51.436;6.972;2023-07-20T01:59:53;8.00;;;4.67;;
2011;SDS011;1009;51.436;6.972;2023-07-20T02:02:23;4.70;;;3.80;;
2011;SDS011;1009;51.436;6.972;2023-07-20T02:04:52;6.97;;;3.87;;
2011;SDS011;1009;51.436;6.972;2023-07-20T02:07:20;5.73;;;4.20;;
2011;SDS011;1009;51.436;6.972;2023-07-20T02:09:48;5.80;;;4.20;;
2011;SDS011;1009;51.436;6.972;2023-07-20T02:12:14;4.80;;;3.60;;
2011;SDS011;1009;51.436;6.972;2023-07-20T02:14:41;7.50;;;4.50;;
2011;SDS011;1009;51.436;6.972;2023-07-20T02:17:08;7.87;;;4.80;;
2011;SDS011;1009;51.436;6.972;2023-07-20T02:19:36;7.30;;;4.60;;
2011;SDS011;1009;51.436;6.972;2023-07-20T02:22:04;5.87;;;4.00;;
2011;SDS011;1009;51.436;6.972;2023-07-20T02:24:32;6.50;;;4.10;;
2011;SDS011;1009;51.436;6.972;2023-07-20T02:26:59;6.80;;;4.40;;
2011;SDS011;1009;51.436;6.972;2023-07-20T02:29:26;9.87;;;6.00;;
2011;SDS011;1009;51.436;6.972;2023-07-20T02:31:52;6.00;;;4.70;;
2011;SDS011;1009;51.436;6.972;2023-07-20T02:34:19;6.70;;;5.10;;
2011;SDS011;1009;51.436;6.972;2023-07-20T02:36:46;6.23;;;4.43;;
2011;SDS011;1009;51.436;6.972;2023-07-20T02:39:13;8.20;;;5.30;;
2011;SDS011;1009;51.436;6.972;2023-07-20T02:41:41;9.70;;;5.50;;
2011;SDS011;1009;51.436;6.972;2023-07-20T02:44:08;9.60;;;5.40;;
2011;SDS011;1009;51.436;6.972;2023-07-20T02:46:35;7.80;;;4.63;;
2011;SDS011;1009;51.436;6.972;2023-07-20T02:49:02;8.83;;;4.90;;
2011;SDS011;1009;51.436;6.972;2023-07-20T02:51:29;9.17;;;5.53;;
2011;SDS011;1009;51.436;6.972;2023-07-20T02:53:56;10.50;;;5.77;;
2011;SDS011;1009;51.436;6.972;2023-07-20T02:56:22;10.30;;;5.80;;
2011;SDS011;1009;51.436;6.972;2023-07-20T02:58:50;8.90;;;6.40;;
2011;SDS011;1009;51.436;6.972;2023-07-20T03:01:18;11.20;;;5.37;;
2011;SDS011;1009;51.436;6.972;2023-07-20T03:03:45;11.20;;;5.80;;
2011;SDS011;1009;51.436;6.972;2023-07-20T03:06:12;10.43;;;6.00;;
2011;SDS011;1009;51.436;6.972;2023-07-20T03:08:39;11.30;;;6.20;;
2011;SDS011;1009;51.436;6.972;2023-07-20T03:11:11;11.10;;;6.80;;
2011;SDS011;1009;51.436;6.972;2023-07-20T03:13:38;9.80;;;5.90;;
2011;SDS011;1009;51.436;6.972;2023-07-20T03:16:07;7.97;;;6.30;;
2011;SDS011;1009;51.436;6.972;2023-07-20T03:18:36;8.57;;;5.87;;
2011;SDS011;1009;51.436;6.972;2023-07-20T03:21:03;9.93;;;6.53;;
2011;SDS011;1009;51.436;6.972;2023-07-20T03:23:30;10.13;;;6.30;;
2011;SDS011;1009;51.436;6.972;2023-07-20T03:25:57;9.97;;;6.43;;
2011;SDS011;1009;51.436;6.972;2023-07-20T03:28:23;7.83;;;5.70;;
2011;SDS011;1009;51.436;6.972;2023-07-20T03:30:52;7.70;;;6.37;;
2011;SDS011;1009;51.436;6.972;2023-07-20T03:33:21;8.37;;;5.90;;
2011;SDS011;1009;51.436;6.972;2023-07-20T03:35:52;9.87;;;6.90;;
2011;SDS011;1009;51.436;6.972;2023-07-20T03:38:19;8.83;;;6.27;;
2011;SDS011;1009;51.436;6.972;2023-07-20T03:40:49;11.90;;;6.87;;
2011;SDS011;1009;51.436;6.972;2023-07-20T03:43:17;12.03;;;6.40;;
2011;SDS011;1009;51.436;6.972;2023-07-20T03:45:44;10.17;;;7.53;;
2011;SDS011;1009;51.436;6.972;2023-07-20T03:48:12;13.17;;;6.63;;
2011;SDS011;1009;51.436;6.972;2023-07-20T03:50:41;10.83;;;7.37;;
2011;SDS011;1009;51.436;6.972;2023-07-20T03:53:08;12.20;;;8.07;;
2011;SDS011;1009;51.436;6.972;2023-07-20T03:55:34;10.83;;;7.73;;
2011;SDS011;1009;51.436;6.972;2023-07-20T03:58:01;14.03;;;8.27;;
2011;SDS011;1009;51.436;6.972;2023-07-20T04:00:28;11.00;;;6.93;;
2011;SDS011;1009;51.436;6.972;2023-07-20T04:02:55;14.10;;;7.77;;
2011;SDS011;1009;51.436;6.972;2023-07-20T04:05:22;13.77;;;8.57;;
2011;SDS011;1009;51.436;6.972;2023-07-20T04:07:50;11.50;;;7.33;;
2011;SDS011;1009;51.436;6.972;2023-07-20T04:10:16;14.60;;;8.50;;
2011;SDS011;1009;51.436;6.972;2023-07-20T04:12:43;10.60;;;7.47;;
2011;SDS011;1009;51.436;6.972;2023-07-20T04:15:12;13.40;;;9.10;;
2011;SDS011;1009;51.436;6.972;2023-07-20T04:17:39;13.27;;;8.27;;
2011;SDS011;1009;51.436;6.972;2023-07-20T04:20:06;23.07;;;10.57;;
2011;SDS011;1009;51.436;6.972;2023-07-20T04:22:33;15.03;;;9.63;;
2011;SDS011;1009;51.436;6.972;2023-07-20T04:25:01;19.40;;;11.27;;
2011;SDS011;1009;51.436;6.972;2023-07-20T04:27:29;18.27;;;11.43;;
2011;SDS011;1009;51.436;6.972;2023-07-20T04:29:55;18.00;;;12.10;;
2011;SDS011;1009;51.436;6.972;2023-07-20T04:32:23;17.43;;;12.43;;
2011;SDS011;1009;51.436;6.972;2023-07-20T04:34:50;17.20;;;11.90;;
2011;SDS011;1009;51.436;6.972;2023-07-20T04:37:17;21.10;;;12.93;;
2011;SDS011;1009;51.436;6.972;2023-07-20T04:39:44;21.20;;;12.23;;
2011;SDS011;1009;51.436;6.972;2023-07-20T04:42:12;20.67;;;12.97;;
2011;SDS011;1009;51.436;6.972;2023-07-20T04:44:39;18.37;;;12.20;;
2011;SDS011;1009;51.436;6.972;2023-07-20T04:47:06;22.10;;;12.60;;
2011;SDS011;1009;51.436;6.972;2023-07-20T04:49:33;16.13;;;12.33;;
2011;SDS011;1009;51.436;6.972;2023-07-20T04:52:00;18.03;;;12.53;;
2011;SDS011;1009;51.436;6.972;2023-07-20T04:54:27;19.00;;;12.63;;
2011;SDS011;1009;51.436;6.972;2023-07-20T04:56:54;19.00;;;13.73;;
2011;SDS011;1009;51.436;6.972;2023-07-20T04:59:22;19.77;;;12.43;;
2011;SDS011;1009;51.436;6.972;2023-07-20T05:01:49;18.70;;;12.93;;
2011;SDS011;1009;51.436;6.972;2023-07-20T05:04:16;16.30;;;11.47;;
2011;SDS011;1009;51.436;6.972;2023-07-20T05:06:42;17.20;;;13.70;;
2011;SDS011;1009;51.436;6.972;2023-07-20T05:09:09;22.17;;;12.90;;
2011;SDS011;1009;51.436;6.972;2023-07-20T05:11:36;16.80;;;11.83;;
2011;SDS011;1009;51.436;6.972;2023-07-20T05:14:03;16.63;;;12.40;;
2011;SDS011;1009;51.436;6.972;2023-07-20T05:16:31;15.90;;;11.40;;
2011;SDS011;1009;51.436;6.972;2023-07-20T05:18:57;20.13;;;12.50;;
2011;SDS011;1009;51.436;6.972;2023-07-20T05:21:24;16.30;;;12.33;;
2011;SDS011;1009;51.436;6.972;2023-07-20T05:23:51;19.97;;;12.53;;
2011;SDS011;1009;51.436;6.972;2023-07-20T05:26:17;17.20;;;11.93;;
2011;SDS011;1009;51.436;6.972;2023-07-20T05:28:44;16.57;;;11.10;;
2011;SDS011;1009;51.436;6.972;2023-07-20T05:31:11;16.90;;;11.13;;
2011;SDS011;1009;51.436;6.972;2023-07-20T05:33:39;13.30;;;10.43;;
2011;SDS011;1009;51.436;6.972;2023-07-20T05:36:06;20.07;;;10.20;;
2011;SDS011;1009;51.436;6.972;2023-07-20T05:38:33;14.60;;;9.43;;
2011;SDS011;1009;51.436;6.972;2023-07-20T05:41:00;13.90;;;9.77;;
2011;SDS011;1009;51.436;6.972;2023-07-20T05:43:28;15.73;;;10.77;;
2011;SDS011;1009;51.436;6.972;2023-07-20T05:45:55;12.37;;;8.90;;
2011;SDS011;1009;51.436;6.972;2023-07-20T05:48:23;12.10;;;8.20;;
2011;SDS011;1009;51.436;6.972;2023-07-20T05:50:51;13.00;;;8.70;;
2011;SDS011;1009;51.436;6.972;2023-07-20T05:53:18;11.90;;;8.50;;
2011;SDS011;1009;51.436;6.972;2023-07-20T05:55:51;11.50;;;8.07;;
2011;SDS011;1009;51.436;6.972;2023-07-20T05:58:18;8.73;;;7.13;;
2011;SDS011;1009;51.436;6.972;2023-07-20T06:00:47;9.80;;;6.67;;
2011;SDS011;1009;51.436;6.972;2023-07-20T06:03:14;10.17;;;6.97;;
2011;SDS011;1009;51.436;6.972;2023-07-20T06:05:41;9.17;;;7.30;;
2011;SDS011;1009;51.436;6.972;2023-07-20T06:08:09;9.27;;;6.63;;
2011;SDS011;1009;51.436;6.972;2023-07-20T06:10:36;11.17;;;7.03;;
2011;SDS011;1009;51.436;6.972;2023-07-20T06:13:03;8.43;;;6.50;;
2011;SDS011;1009;51.436;6.972;2023-07-20T06:15:31;8.30;;;6.53;;
2011;SDS011;1009;51.436;6.972;2023-07-20T06:17:59;7.77;;;5.90;;
2011;SDS011;1009;51.436;6.972;2023-07-20T06:20:26;7.93;;;5.97;;
2011;SDS011;1009;51.436;6.972;2023-07-20T06:22:53;8.47;;;6.33;;
2011;SDS011;1009;51.436;6.972;2023-07-20T06:25:21;9.13;;;5.80;;
2011;SDS011;1009;51.436;6.972;2023-07-20T06:27:49;7.60;;;5.70;;
2011;SDS011;1009;51.436;6.972;2023-07-20T06:30:16;8.33;;;5.40;;
2011;SDS011;1009;51.436;6.972;2023-07-20T06:32:43;5.60;;;4.67;;
2011;SDS011;1009;51.436;6.972;2023-07-20T06:35:10;4.90;;;4.00;;
2011;SDS011;1009;51.436;6.972;2023-07-20T06:37:37;5.30;;;4.30;;
2011;SDS011;1009;51.436;6.972;2023-07-20T06:40:04;5.40;;;3.87;;
2011;SDS011;1009;51.436;6.972;2023-07-20T06:42:35;6.13;;;3.80;;
2011;SDS011;1009;51.436;6.972;2023-07-20T06:45:02;4.83;;;4.33;;
2011;SDS011;1009;51.436;6.972;2023-07-20T06:47:29;3.57;;;3.13;;
2011;SDS011;1009;51.436;6.972;2023-07-20T06:49:56;5.10;;;3.47;;
2011;SDS011;1009;51.436;6.972;2023-07-20T06:52:23;4.47;;;3.43;;
2011;SDS011;1009;51.436;6.972;2023-07-20T06:54:49;6.87;;;3.70;;
2011;SDS011;1009;51.436;6.972;2023-07-20T06:57:17;6.10;;;4.07;;
2011;SDS011;1009;51.436;6.972;2023-07-20T06:59:45;4.90;;;3.40;;
2011;SDS011;1009;51.436;6.972;2023-07-20T07:02:12;3.50;;;3.07;;
2011;SDS011;1009;51.436;6.972;2023-07-20T07:04:39;5.13;;;3.27;;
2011;SDS011;1009;51.436;6.972;2023-07-20T07:07:06;4.50;;;3.90;;
2011;SDS011;1009;51.436;6.972;2023-07-20T07:09:32;4.50;;;3.53;;
2011;SDS011;1009;51.436;6.972;2023-07-20T07:11:59;5.13;;;4.63;;
2011;SDS011;1009;51.436;6.972;2023-07-20T07:14:26;5.83;;;5.30;;
2011;SDS011;1009;51.436;6.972;2023-07-20T07:16:54;6.70;;;5.40;;
2011;SDS011;1009;51.436;6.972;2023-07-20T07:19:21;5.73;;;5.13;;
2011;SDS011;1009;51.436;6.972;2023-07-20T07:21:47;5.80;;;4.90;;
2011;SDS011;1009;51.436;6.972;2023-07-20T07:24:14;7.53;;;5.70;;
2011;SDS011;1009;51.436;6.972;2023-07-20T07:26:41;6.83;;;5.40;;
2011;SDS011;1009;51.436;6.972;2023-07-20T07:29:08;7.10;;;6.00;;
2011;SDS011;1009;51.436;6.972;2023-07-20T07:31:35;8.03;;;6.87;;
2011;SDS011;1009;51.436;6.972;2023-07-20T07:34:04;8.13;;;7.33;;
2011;SDS011;1009;51.436;6.972;2023-07-20T07:36:32;6.73;;;5.90;;
2011;SDS011;1009;51.436;6.972;2023-07-20T07:38:59;5.53;;;4.00;;
2011;SDS011;1009;51.436;6.972;2023-07-20T07:41:26;3.07;;;2.30;;
2011;SDS011;1009;51.436;6.972;2023-07-20T07:43:52;2.53;;;2.23;;
2011;SDS011;1009;51.436;6.972;2023-07-20T07:46:21;2.00;;;1.80;;
2011;SDS011;1009;51.436;6.972;2023-07-20T07:48:48;1.83;;;1.40;;
2011;SDS011;1009;51.436;6.972;2023-07-20T07:51:16;1.47;;;1.00;;
2011;SDS011;1009;51.436;6.972;2023-07-20T07:53:42;1.40;;;1.30;;
2011;SDS011;1009;51.436;6.972;2023-07-20T07:56:09;1.60;;;1.50;;
2011;SDS011;1009;51.436;6.972;2023-07-20T07:58:36;3.00;;;1.10;;
2011;SDS011;1009;51.436;6.972;2023-07-20T08:01:03;1.27;;;0.90;;
2011;SDS011;1009;51.436;6.972;2023-07-20T08:03:30;2.10;;;1.60;;
2011;SDS011;1009;51.436;6.972;2023-07-20T08:05:57;2.53;;;2.33;;
2011;SDS011;1009;51.436;6.972;2023-07-20T08:08:26;2.00;;;1.90;;
2011;SDS011;1009;51.436;6.972;2023-07-20T08:10:53;1.37;;;1.27;;
2011;SDS011;1009;51.436;6.972;2023-07-20T08:13:20;0.90;;;0.77;;
2011;SDS011;1009;51.436;6.972;2023-07-20T08:15:49;1.17;;;0.90;;
2011;SDS011;1009;51.436;6.972;2023-07-20T08:18:16;0.87;;;0.87;;
2011;SDS011;1009;51.436;6.972;2023-07-20T08:20:43;0.80;;;0.70;;
2011;SDS011;1009;51.436;6.972;2023-07-20T08:23:10;1.07;;;0.50;;
2011;SDS011;1009;51.436;6.972;2023-07-20T08:25:38;3.37;;;0.87;;
2011;SDS011;1009;51.436;6.972;2023-07-20T08:28:09;1.40;;;0.80;;
2011;SDS011;1009;51.436;6.972;2023-07-20T08:30:39;1.30;;;1.10;;
2011;SDS011;1009;51.436;6.972;2023-07-20T08:33:07;2.80;;;1.37;;
2011;SDS011;1009;51.436;6.972;2023-07-20T08:35:34;1.57;;;1.47;;
2011;SDS011;1009;51.436;6.972;2023-07-20T08:38:01;4.23;;;1.43;;
2011;SDS011;1009;51.436;6.972;2023-07-20T08:40:29;1.80;;;1.33;;
2011;SDS011;1009;51.436;6.972;2023-07-20T08:42:57;0.80;;;0.77;;
2011;SDS011;1009;51.436;6.972;2023-07-20T08:45:25;0.70;;;0.67;;
2011;SDS011;1009;51.436;6.972;2023-07-20T08:47:54;1.33;;;0.87;;
2011;SDS011;1009;51.436;6.972;2023-07-20T08:50:22;1.43;;;0.93;;
2011;SDS011;1009;51.436;6.972;2023-07-20T08:52:50;0.73;;;0.70;;
2011;SDS011;1009;51.436;6.972;2023-07-20T08:55:19;1.20;;;1.00;;
2011;SDS011;1009;51.436;6.972;2023-07-20T08:57:47;2.60;;;1.13;;
2011;SDS011;1009;51.436;6.972;2023-07-20T09:00:18;0.60;;;0.53;;
2011;SDS011;1009;51.436;6.972;2023-07-20T09:02:47;0.83;;;0.63;;
2011;SDS011;1009;51.436;6.972;2023-07-20T09:05:16;0.90;;;0.70;;
2011;SDS011;1009;51.436;6.972;2023-07-20T09:07:43;0.77;;;0.77;;
2011;SDS011;1009;51.436;6.972;2023-07-20T09:10:10;0.80;;;0.67;;
2011;SDS011;1009;51.436;6.972;2023-07-20T09:12:38;1.07;;;0.83;;
2011;SDS011;1009;51.436;6.972;2023-07-20T09:15:06;1.27;;;0.83;;
2011;SDS011;1009;51.436;6.972;2023-07-20T09:17:35;2.50;;;0.60;;
2011;SDS011;1009;51.436;6.972;2023-07-20T09:20:03;1.50;;;1.10;;
2011;SDS011;1009;51.436;6.972;2023-07-20T09:22:35;0.80;;;0.70;;
2011;SDS011;1009;51.436;6.972;2023-07-20T09:25:05;1.23;;;0.80;;
2011;SDS011;1009;51.436;6.972;2023-07-20T09:27:37;1.10;;;0.90;;
2011;SDS011;1009;51.436;6.972;2023-07-20T09:30:05;2.50;;;1.00;;
2011;SDS011;1009;51.436;6.972;2023-07-20T09:32:39;1.20;;;0.70;;
2011;SDS011;1009;51.436;6.972;2023-07-20T09:35:12;1.03;;;0.70;;
2011;SDS011;1009;51.436;6.972;2023-07-20T09:37:39;0.73;;;0.60;;
2011;SDS011;1009;51.436;6.972;2023-07-20T09:40:09;1.10;;;0.50;;
2011;SDS011;1009;51.436;6.972;2023-07-20T09:42:36;0.70;;;0.50;;
2011;SDS011;1009;51.436;6.972;2023-07-20T09:45:06;2.10;;;0.60;;
2011;SDS011;1009;51.436;6.972;2023-07-20T09:47:35;0.77;;;0.73;;
2011;SDS011;1009;51.436;6.972;2023-07-20T09:50:05;0.97;;;0.40;;
2011;SDS011;1009;51.436;6.972;2023-07-20T09:52:35;1.27;;;0.70;;
2011;SDS011;1009;51.436;6.972;2023-07-20T09:55:04;0.70;;;0.70;;
2011;SDS011;1009;51.436;6.972;2023-07-20T09:57:33;1.20;;;0.80;;
2011;SDS011;1009;51.436;6.972;2023-07-20T10:00:01;1.07;;;0.60;;
2011;SDS011;1009;51.436;6.972;2023-07-20T10:02:30;0.70;;;0.60;;
2011;SDS011;1009;51.436;6.972;2023-07-20T10:05:00;0.90;;;0.80;;
2011;SDS011;1009;51.436;6.972;2023-07-20T10:07:30;1.17;;;0.70;;
2011;SDS011;1009;51.436;6.972;2023-07-20T10:09:59;0.80;;;0.80;;
2011;SDS011;1009;51.436;6.972;2023-07-20T10:12:28;0.60;;;0.60;;
2011;SDS011;1009;51.436;6.972;2023-07-20T10:14:57;1.43;;;0.70;;
2011;SDS011;1009;51.436;6.972;2023-07-20T10:17:30;0.90;;;0.70;;
2011;SDS011;1009;51.436;6.972;2023-07-20T10:19:57;1.17;;;1.07;;
2011;SDS011;1009;51.436;6.972;2023-07-20T10:22:33;1.50;;;1.40;;
2011;SDS011;1009;51.436;6.972;2023-07-20T10:25:02;1.90;;;1.80;;
2011;SDS011;1009;51.436;6.972;2023-07-20T10:27:30;2.43;;;2.17;;
2011;SDS011;1009;51.436;6.972;2023-07-20T10:29:57;3.07;;;2.87;;
2011;SDS011;1009;51.436;6.972;2023-07-20T10:32:27;2.80;;;2.60;;
2011;SDS011;1009;51.436;6.972;2023-07-20T10:34:55;2.60;;;2.40;;
2011;SDS011;1009;51.436;6.972;2023-07-20T10:40:29;0.93;;;0.90;;
2011;SDS011;1009;51.436;6.972;2023-07-20T10:43:01;1.53;;;1.43;;
2011;SDS011;1009;51.436;6.972;2023-07-20T10:45:36;1.50;;;1.40;;
2011;SDS011;1009;51.436;6.972;2023-07-20T10:48:12;3.47;;;1.60;;
2011;SDS011;1009;51.436;6.972;2023-07-20T10:50:40;2.13;;;1.93;;
2011;SDS011;1009;51.436;6.972;2023-07-20T10:53:12;2.03;;;1.70;;
2011;SDS011;1009;51.436;6.972;2023-07-20T10:55:40;2.17;;;1.90;;
2011;SDS011;1009;51.436;6.972;2023-07-20T10:58:09;2.80;;;2.60;;
2011;SDS011;1009;51.436;6.972;2023-07-20T11:00:36;2.77;;;2.57;;
2011;SDS011;1009;51.436;6.972;2023-07-20T11:03:04;3.40;;;3.03;;
2011;SDS011;1009;51.436;6.972;2023-07-20T11:05:34;2.87;;;2.33;;
2011;SDS011;1009;51.436;6.972;2023-07-20T11:08:03;2.67;;;2.47;;
2011;SDS011;1009;51.436;6.972;2023-07-20T11:10:32;2.17;;;1.97;;
2011;SDS011;1009;51.436;6.972;2023-07-20T11:15:45;4.40;;;1.83;;
2011;SDS011;1009;51.436;6.972;2023-07-20T11:18:13;1.80;;;1.70;;
2011;SDS011;1009;51.436;6.972;2023-07-20T11:20:40;1.50;;;1.20;;
2011;SDS011;1009;51.436;6.972;2023-07-20T11:23:07;2.00;;;1.80;;
2011;SDS011;1009;51.436;6.972;2023-07-20T11:25:40;2.10;;;1.43;;
2011;SDS011;1009;51.436;6.972;2023-07-20T11:28:07;2.27;;;1.87;;
2011;SDS011;1009;51.436;6.972;2023-07-20T11:30:35;2.27;;;2.07;;
2011;SDS011;1009;51.436;6.972;2023-07-20T11:33:02;1.73;;;1.63;;
2011;SDS011;1009;51.436;6.972;2023-07-20T11:35:29;2.33;;;2.00;;
2011;SDS011;1009;51.436;6.972;2023-07-20T11:37:56;1.77;;;1.67;;
2011;SDS011;1009;51.436;6.972;2023-07-20T11:40:23;1.80;;;1.70;;
2011;SDS011;1009;51.436;6.972;2023-07-20T11:42:51;2.40;;;2.20;;
2011;SDS011;1009;51.436;6.972;2023-07-20T11:45:19;2.17;;;2.07;;
2011;SDS011;1009;51.436;6.972;2023-07-20T11:47:46;2.63;;;2.43;;
2011;SDS011;1009;51.436;6.972;2023-07-20T11:50:13;2.40;;;2.20;;
2011;SDS011;1009;51.436;6.972;2023-07-20T11:52:41;2.30;;;2.10;;
2011;SDS011;1009;51.436;6.972;2023-07-20T11:55:08;1.83;;;1.73;;
2011;SDS011;1009;51.436;6.972;2023-07-20T11:57:35;1.70;;;1.60;;
2011;SDS011;1009;51.436;6.972;2023-07-20T12:00:05;1.60;;;1.50;;
2011;SDS011;1009;51.436;6.972;2023-07-20T12:02:36;1.73;;;1.63;;
2011;SDS011;1009;51.436;6.972;2023-07-20T12:05:04;1.83;;;1.67;;
2011;SDS011;1009;51.436;6.972;2023-07-20T12:07:34;2.00;;;1.70;;
2011;SDS011;1009;51.436;6.972;2023-07-20T12:10:06;1.97;;;1.77;;
2011;SDS011;1009;51.436;6.972;2023-07-20T12:12:33;1.77;;;1.67;;
2011;SDS011;1009;51.436;6.972;2023-07-20T12:15:15;2.00;;;1.90;;
2011;SDS011;1009;51.436;6.972;2023-07-20T12:17:43;3.37;;;1.73;;
2011;SDS011;1009;51.436;6.972;2023-07-20T12:20:11;1.53;;;1.43;;
2011;SDS011;1009;51.436;6.972;2023-07-20T12:22:39;2.03;;;1.73;;
2011;SDS011;1009;51.436;6.972;2023-07-20T12:25:06;1.90;;;1.80;;
2011;SDS011;1009;51.436;6.972;2023-07-20T12:27:35;2.23;;;2.03;;
2011;SDS011;1009;51.436;6.972;2023-07-20T12:30:03;2.20;;;2.03;;
2011;SDS011;1009;51.436;6.972;2023-07-20T12:32:32;2.00;;;1.90;;
2011;SDS011;1009;51.436;6.972;2023-07-20T12:34:59;2.20;;;1.73;;
2011;SDS011;1009;51.436;6.972;2023-07-20T12:37:26;1.57;;;1.47;;
2011;SDS011;1009;51.436;6.972;2023-07-20T12:39:53;2.40;;;1.50;;
2011;SDS011;1009;51.436;6.972;2023-07-20T12:42:19;1.70;;;1.60;;
2011;SDS011;1009;51.436;6.972;2023-07-20T12:44:47;1.27;;;1.03;;
2011;SDS011;1009;51.436;6.972;2023-07-20T12:47:16;2.17;;;1.40;;
2011;SDS011;1009;51.436;6.972;2023-07-20T12:49:45;2.17;;;1.60;;
2011;SDS011;1009;51.436;6.972;2023-07-20T12:52:12;1.40;;;1.00;;
2011;SDS011;1009;51.436;6.972;2023-07-20T12:54:39;1.40;;;1.30;;
2011;SDS011;1009;51.436;6.972;2023-07-20T12:57:06;1.23;;;1.10;;
2011;SDS011;1009;51.436;6.972;2023-07-20T12:59:33;1.60;;;1.50;;
2011;SDS011;1009;51.436;6.972;2023-07-20T13:01:59;1.30;;;1.10;;
2011;SDS011;1009;51.436;6.972;2023-07-20T13:04:26;1.73;;;1.53;;
2011;SDS011;1009;51.436;6.972;2023-07-20T13:06:54;1.60;;;1.43;;
2011;SDS011;1009;51.436;6.972;2023-07-20T13:09:23;3.40;;;1.73;;
2011;SDS011;1009;51.436;6.972;2023-07-20T13:11:50;1.20;;;1.00;;
2011;SDS011;1009;51.436;6.972;2023-07-20T13:14:17;1.80;;;1.27;;
2011;SDS011;1009;51.436;6.972;2023-07-20T13:16:44;0.87;;;0.80;;
2011;SDS011;1009;51.436;6.972;2023-07-20T13:19:11;1.70;;;1.57;;
2011;SDS011;1009;51.436;6.972;2023-07-20T13:21:37;1.30;;;0.87;;
2011;SDS011;1009;51.436;6.972;2023-07-20T13:24:06;2.13;;;1.10;;
2011;SDS011;1009;51.436;6.972;2023-07-20T13:26:33;1.97;;;1.10;;
2011;SDS011;1009;51.436;6.972;2023-07-20T13:28:59;1.23;;;0.90;;
2011;SDS011;1009;51.436;6.972;2023-07-20T13:31:26;1.73;;;0.93;;
2011;SDS011;1009;51.436;6.972;2023-07-20T13:33:53;1.20;;;1.03;;
2011;SDS011;1009;51.436;6.972;2023-07-20T13:36:21;1.63;;;0.93;;
2011;SDS011;1009;51.436;6.972;2023-07-20T13:38:48;1.57;;;0.90;;
2011;SDS011;1009;51.436;6.972;2023-07-20T13:41:16;1.03;;;0.73;;
2011;SDS011;1009;51.436;6.972;2023-07-20T13:43:43;1.37;;;0.80;;
2011;SDS011;1009;51.436;6.972;2023-07-20T13:46:10;1.83;;;0.70;;
2011;SDS011;1009;51.436;6.972;2023-07-20T13:48:37;1.10;;;0.80;;
2011;SDS011;1009;51.436;6.972;2023-07-20T13:51:04;0.80;;;0.63;;
2011;SDS011;1009;51.436;6.972;2023-07-20T13:53:31;1.30;;;0.70;;
2011;SDS011;1009;51.436;6.972;2023-07-20T13:55:57;1.80;;;0.70;;
2011;SDS011;1009;51.436;6.972;2023-07-20T13:58:26;1.00;;;0.63;;
2011;SDS011;1009;51.436;6.972;2023-07-20T14:00:52;0.90;;;0.50;;
2011;SDS011;1009;51.436;6.972;2023-07-20T14:03:20;1.23;;;0.70;;
2011;SDS011;1009;51.436;6.972;2023-07-20T14:05:47;0.90;;;0.53;;
2011;SDS011;1009;51.436;6.972;2023-07-20T14:08:14;1.43;;;0.70;;
2011;SDS011;1009;51.436;6.972;2023-07-20T14:10:40;1.63;;;1.10;;
2011;SDS011;1009;51.436;6.972;2023-07-20T14:13:07;1.10;;;0.70;;
2011;SDS011;1009;51.436;6.972;2023-07-20T14:15:35;0.83;;;0.60;;
2011;SDS011;1009;51.436;6.972;2023-07-20T14:18:02;0.87;;;0.63;;
2011;SDS011;1009;51.436;6.972;2023-07-20T14:20:29;1.10;;;0.97;;
2011;SDS011;1009;51.436;6.972;2023-07-20T14:22:56;1.63;;;0.70;;
2011;SDS011;1009;51.436;6.972;2023-07-20T14:25:22;3.33;;;0.80;;
2011;SDS011;1009;51.436;6.972;2023-07-20T14:27:49;1.17;;;0.80;;
2011;SDS011;1009;51.436;6.972;2023-07-20T14:30:16;0.97;;;0.70;;
2011;SDS011;1009;51.436;6.972;2023-07-20T14:32:44;0.73;;;0.60;;
2011;SDS011;1009;51.436;6.972;2023-07-20T14:35:11;0.80;;;0.70;;
2011;SDS011;1009;51.436;6.972;2023-07-20T14:37:39;2.47;;;0.60;;
2011;SDS011;1009;51.436;6.972;2023-07-20T14:40:06;1.40;;;1.00;;
2011;SDS011;1009;51.436;6.972;2023-07-20T14:42:33;0.90;;;0.60;;
2011;SDS011;1009;51.436;6.972;2023-07-20T14:45:00;2.50;;;1.03;;
2011;SDS011;1009;51.436;6.972;2023-07-20T14:47:27;1.57;;;1.00;;
2011;SDS011;1009;51.436;6.972;2023-07-20T14:49:58;1.43;;;0.70;;
2011;SDS011;1009;51.436;6.972;2023-07-20T14:52:25;1.43;;;0.73;;
2011;SDS011;1009;51.436;6.972;2023-07-20T14:54:52;1.10;;;0.70;;
2011;SDS011;1009;51.436;6.972;2023-07-20T14:57:19;1.30;;;0.90;;
2011;SDS011;1009;51.436;6.972;2023-07-20T14:59:48;0.93;;;0.80;;
2011;SDS011;1009;51.436;6.972;2023-07-20T15:02:14;0.90;;;0.70;;
2011;SDS011;1009;51.436;6.972;2023-07-20T15:04:45;1.10;;;0.60;;
2011;SDS011;1009;51.436;6.972;2023-07-20T15:07:13;1.10;;;0.80;;
2011;SDS011;1009;51.436;6.972;2023-07-20T15:09:40;0.97;;;0.60;;
2011;SDS011;1009;51.436;6.972;2023-07-20T15:12:07;1.97;;;0.97;;
2011;SDS011;1009;51.436;6.972;2023-07-20T15:14:35;1.10;;;1.00;;
2011;SDS011;1009;51.436;6.972;2023-07-20T15:17:01;1.70;;;1.27;;
2011;SDS011;1009;51.436;6.972;2023-07-20T15:19:28;1.10;;;0.80;;
2011;SDS011;1009;51.436;6.972;2023-07-20T15:21:55;2.33;;;1.03;;
2011;SDS011;1009;51.436;6.972;2023-07-20T15:24:23;1.17;;;1.07;;
2011;SDS011;1009;51.436;6.972;2023-07-20T15:26:50;1.20;;;0.90;;